Time;durP1;ratioP1;P1;durP2;ratioP2;P2;SDS_P1;SDS_P2;PMS_P1;PMS_P2;Temp;Humidity;BMP_temperature;BMP_pressure;BME280_temperature;BME280_humidity;BME280_pressure;Samples;Min_cycle;Max_cycle;Signal;HPM_P1;HPM_P2
2021/10/27 00:01:59;;;;;;;233.00;24.25;;;;;;;;;;5010006;28;20385;-48
2021/10/27 00:04:26;;;;;;;218.55;23.80;;;;;;;;;;5004845;28;20026;-49
2021/10/27 00:06:53;;;;;;;237.60;28.52;;;;;;;;;;5009456;28;20087;-49
2021/10/27 00:09:20;;;;;;;337.05;36.33;;;;;;;;;;5006956;28;20761;-50
2021/10/27 00:11:47;;;;;;;269.58;31.67;;;;;;;;;;5002038;28;20035;-52
2021/10/27 00:14:14;;;;;;;248.57;30.58;;;;;;;;;;4999966;28;20060;-51
2021/10/27 00:16:41;;;;;;;220.40;26.98;;;;;;;;;;5008176;28;20903;-46
2021/10/27 00:19:08;;;;;;;243.35;29.80;;;;;;;;;;5008045;28;20041;-51
2021/10/27 00:21:35;;;;;;;201.10;27.67;;;;;;;;;;5007901;28;20513;-51
2021/10/27 00:24:02;;;;;;;211.38;27.40;;;;;;;;;;5007198;28;20037;-53
2021/10/27 00:26:30;;;;;;;239.95;30.23;;;;;;;;;;5007363;28;20068;-46
2021/10/27 00:28:57;;;;;;;288.20;35.00;;;;;;;;;;5005421;28;20025;-45
2021/10/27 00:31:24;;;;;;;212.73;26.63;;;;;;;;;;5009178;28;20097;-49
2021/10/27 00:33:51;;;;;;;199.90;27.83;;;;;;;;;;5005785;28;20041;-50
2021/10/27 00:36:19;;;;;;;181.45;25.42;;;;;;;;;;5008462;28;20104;-49
2021/10/27 00:38:46;;;;;;;235.55;31.35;;;;;;;;;;5003678;28;20049;-48
2021/10/27 00:41:13;;;;;;;209.90;27.60;;;;;;;;;;4989539;28;20038;-50
2021/10/27 00:43:40;;;;;;;195.73;27.30;;;;;;;;;;4998304;28;20018;-59
2021/10/27 00:46:17;;;;;;;214.05;31.02;;;;;;;;;;5001422;28;20136;-49
2021/10/27 00:48:44;;;;;;;258.33;33.08;;;;;;;;;;4998553;28;20076;-49
2021/10/27 00:51:12;;;;;;;210.05;30.85;;;;;;;;;;5000585;28;20417;-56
2021/10/27 00:53:39;;;;;;;201.27;27.88;;;;;;;;;;4997021;28;20053;-47
2021/10/27 00:56:13;;;;;;;221.38;31.13;;;;;;;;;;4999860;28;20469;-50
2021/10/27 00:58:41;;;;;;;225.82;30.92;;;;;;;;;;5000293;28;20516;-49
2021/10/27 01:01:08;;;;;;;221.68;29.40;;;;;;;;;;4998629;28;20486;-48
2021/10/27 01:03:36;;;;;;;194.93;29.35;;;;;;;;;;4998139;28;20454;-50
2021/10/27 01:06:04;;;;;;;240.60;33.83;;;;;;;;;;4994681;28;20045;-47
2021/10/27 01:08:32;;;;;;;222.40;31.13;;;;;;;;;;4977652;28;20034;-51
2021/10/27 01:11:00;;;;;;;219.20;33.05;;;;;;;;;;4985748;28;20153;-45
2021/10/27 01:13:27;;;;;;;191.70;29.23;;;;;;;;;;4979139;28;20046;-46
2021/10/27 01:15:54;;;;;;;178.27;30.67;;;;;;;;;;4977521;28;20057;-45
2021/10/27 01:18:21;;;;;;;196.80;32.60;;;;;;;;;;4975253;28;20026;-46
2021/10/27 01:20:48;;;;;;;183.05;30.77;;;;;;;;;;4992175;28;20177;-45
2021/10/27 01:23:15;;;;;;;181.90;30.40;;;;;;;;;;4977725;28;20536;-47
2021/10/27 01:25:42;;;;;;;171.35;28.20;;;;;;;;;;4991788;28;20042;-47
2021/10/27 01:28:09;;;;;;;161.60;30.58;;;;;;;;;;4990284;28;20077;-46
2021/10/27 01:30:36;;;;;;;156.55;29.58;;;;;;;;;;4991912;28;20030;-48
2021/10/27 01:33:04;;;;;;;176.80;30.85;;;;;;;;;;4992426;28;20414;-46
2021/10/27 01:35:31;;;;;;;188.02;30.35;;;;;;;;;;4986714;28;20057;-46
2021/10/27 01:37:58;;;;;;;174.15;30.05;;;;;;;;;;4986726;28;20549;-45
2021/10/27 01:40:25;;;;;;;172.93;27.27;;;;;;;;;;4987261;28;20034;-49
2021/10/27 01:42:54;;;;;;;176.38;30.15;;;;;;;;;;4990143;28;20035;-51
2021/10/27 01:45:21;;;;;;;153.25;27.52;;;;;;;;;;5001284;28;20038;-51
2021/10/27 01:47:48;;;;;;;150.02;27.58;;;;;;;;;;4985085;28;20093;-48
2021/10/27 01:50:15;;;;;;;165.40;27.98;;;;;;;;;;4981305;28;20539;-45
2021/10/27 01:52:42;;;;;;;230.75;28.98;;;;;;;;;;4982768;28;20134;-49
2021/10/27 01:55:10;;;;;;;310.98;34.40;;;;;;;;;;4990377;28;20014;-43
2021/10/27 01:57:37;;;;;;;203.90;25.63;;;;;;;;;;4988640;28;20382;-47
2021/10/27 02:00:08;;;;;;;224.40;29.75;;;;;;;;;;5003933;28;20105;-50
2021/10/27 02:02:35;;;;;;;251.27;29.02;;;;;;;;;;4978732;28;20062;-47
2021/10/27 02:05:02;;;;;;;270.67;32.38;;;;;;;;;;4985989;28;20046;-45
2021/10/27 02:07:29;;;;;;;299.45;28.70;;;;;;;;;;4990793;28;20032;-43
2021/10/27 02:09:56;;;;;;;328.02;33.38;;;;;;;;;;4991045;28;20025;-47
2021/10/27 02:12:23;;;;;;;211.18;26.15;;;;;;;;;;4986414;28;20026;-46
2021/10/27 02:14:50;;;;;;;181.60;22.67;;;;;;;;;;4989729;28;20724;-47
2021/10/27 02:17:17;;;;;;;159.02;19.88;;;;;;;;;;4991092;28;20015;-50
2021/10/27 02:19:44;;;;;;;140.80;21.13;;;;;;;;;;4986041;28;20039;-44
2021/10/27 02:22:12;;;;;;;130.23;19.33;;;;;;;;;;4993688;28;20121;-48
2021/10/27 02:24:39;;;;;;;171.32;23.70;;;;;;;;;;4991982;28;20425;-49
2021/10/27 02:27:06;;;;;;;155.25;22.70;;;;;;;;;;5001535;28;20092;-52
2021/10/27 02:29:34;;;;;;;153.55;21.77;;;;;;;;;;5012995;28;20076;-57
2021/10/27 02:32:01;;;;;;;137.20;20.45;;;;;;;;;;5011922;28;20018;-56
2021/10/27 02:34:28;;;;;;;139.55;20.55;;;;;;;;;;5013476;28;20018;-54
2021/10/27 02:36:55;;;;;;;153.63;20.38;;;;;;;;;;5013411;28;20042;-55
2021/10/27 02:39:22;;;;;;;126.65;19.42;;;;;;;;;;5009213;28;20512;-48
2021/10/27 02:41:49;;;;;;;138.90;19.63;;;;;;;;;;5012727;28;20033;-58
2021/10/27 02:44:16;;;;;;;124.40;18.70;;;;;;;;;;5013106;28;20384;-58
2021/10/27 02:46:43;;;;;;;144.32;20.20;;;;;;;;;;5013707;28;20057;-45
2021/10/27 02:49:10;;;;;;;137.63;18.65;;;;;;;;;;5012334;28;20478;-51
2021/10/27 02:51:37;;;;;;;159.00;21.90;;;;;;;;;;5012832;28;20144;-50
2021/10/27 02:54:05;;;;;;;140.43;19.63;;;;;;;;;;5013652;28;20097;-51
2021/10/27 02:56:32;;;;;;;155.35;20.30;;;;;;;;;;5013877;28;20072;-47
2021/10/27 02:58:59;;;;;;;134.45;18.42;;;;;;;;;;5006944;28;20396;-44
2021/10/27 03:01:26;;;;;;;139.25;20.33;;;;;;;;;;4997042;28;20034;-43
2021/10/27 03:03:54;;;;;;;129.82;18.58;;;;;;;;;;4993639;28;20030;-46
2021/10/27 03:06:21;;;;;;;120.50;20.25;;;;;;;;;;4993373;28;20100;-42
2021/10/27 03:08:48;;;;;;;155.65;23.33;;;;;;;;;;4987497;28;20505;-42
2021/10/27 03:11:15;;;;;;;140.55;20.55;;;;;;;;;;4993729;28;20060;-50
2021/10/27 03:13:43;;;;;;;111.60;18.88;;;;;;;;;;4993432;28;20023;-43
2021/10/27 03:16:09;;;;;;;136.85;21.05;;;;;;;;;;4993126;28;20032;-45
2021/10/27 03:18:36;;;;;;;145.90;20.08;;;;;;;;;;4988495;28;20030;-53
2021/10/27 03:21:04;;;;;;;165.77;22.70;;;;;;;;;;4992888;28;20126;-50
2021/10/27 03:23:31;;;;;;;180.25;24.80;;;;;;;;;;4991803;28;20030;-51
2021/10/27 03:25:58;;;;;;;141.43;21.90;;;;;;;;;;4992819;28;20042;-50
2021/10/27 03:28:25;;;;;;;145.80;20.35;;;;;;;;;;4988418;28;20022;-47
2021/10/27 03:30:52;;;;;;;157.88;20.77;;;;;;;;;;4992989;28;20462;-49
2021/10/27 03:33:19;;;;;;;140.30;21.17;;;;;;;;;;4993164;28;20033;-52
2021/10/27 03:35:47;;;;;;;140.63;20.60;;;;;;;;;;4991480;28;20018;-47
2021/10/27 03:38:14;;;;;;;156.55;20.83;;;;;;;;;;4987895;28;20034;-45
2021/10/27 03:40:41;;;;;;;169.30;21.25;;;;;;;;;;4993013;28;20014;-48
2021/10/27 03:43:08;;;;;;;139.88;19.20;;;;;;;;;;4992854;28;20026;-47
2021/10/27 03:45:36;;;;;;;138.13;20.30;;;;;;;;;;4992320;28;20036;-49
2021/10/27 03:48:03;;;;;;;124.82;17.75;;;;;;;;;;4990330;28;20097;-45
2021/10/27 03:50:30;;;;;;;99.25;16.63;;;;;;;;;;4990324;28;20026;-50
2021/10/27 03:52:57;;;;;;;130.70;17.30;;;;;;;;;;4992548;28;20038;-42
2021/10/27 03:55:24;;;;;;;96.40;15.45;;;;;;;;;;4992385;28;20035;-52
2021/10/27 03:57:51;;;;;;;91.00;15.18;;;;;;;;;;4990988;28;20045;-57
2021/10/27 04:00:18;;;;;;;105.47;16.70;;;;;;;;;;4987880;28;20397;-47
2021/10/27 04:02:45;;;;;;;107.28;17.38;;;;;;;;;;4992854;28;20053;-53
2021/10/27 04:05:12;;;;;;;91.57;16.88;;;;;;;;;;4992259;28;20486;-54
2021/10/27 04:07:40;;;;;;;99.18;16.60;;;;;;;;;;4991805;28;20117;-50
2021/10/27 04:10:07;;;;;;;114.80;16.55;;;;;;;;;;4987812;28;20492;-44
2021/10/27 04:12:36;;;;;;;114.90;15.93;;;;;;;;;;4992333;28;20097;-50
2021/10/27 04:15:05;;;;;;;102.85;16.10;;;;;;;;;;4991967;28;20478;-48
2021/10/27 04:17:32;;;;;;;103.95;16.70;;;;;;;;;;4991749;28;20153;-49
2021/10/27 04:19:59;;;;;;;120.32;16.80;;;;;;;;;;4987279;28;20473;-47
2021/10/27 04:22:26;;;;;;;116.63;16.52;;;;;;;;;;4992424;28;20080;-51
2021/10/27 04:24:53;;;;;;;124.25;16.63;;;;;;;;;;4992217;28;20541;-51
2021/10/27 04:27:20;;;;;;;164.50;22.75;;;;;;;;;;4991984;28;20136;-47
2021/10/27 04:29:47;;;;;;;116.15;18.00;;;;;;;;;;4987244;28;20019;-50
2021/10/27 04:32:14;;;;;;;116.38;16.17;;;;;;;;;;4992361;28;20030;-49
2021/10/27 04:34:41;;;;;;;127.40;18.67;;;;;;;;;;4992261;28;20023;-43
2021/10/27 04:37:09;;;;;;;100.07;16.50;;;;;;;;;;4991779;28;20050;-46
2021/10/27 04:39:36;;;;;;;100.60;16.00;;;;;;;;;;4987098;28;20022;-42
2021/10/27 04:42:03;;;;;;;89.75;14.85;;;;;;;;;;4992331;28;20405;-49
2021/10/27 04:44:31;;;;;;;101.05;16.10;;;;;;;;;;4992236;28;20406;-48
2021/10/27 04:47:01;;;;;;;90.82;13.70;;;;;;;;;;4991933;28;20080;-49
2021/10/27 04:49:28;;;;;;;84.22;14.77;;;;;;;;;;4989738;28;20101;-47
2021/10/27 04:51:55;;;;;;;85.35;16.13;;;;;;;;;;4989562;28;20044;-44
2021/10/27 04:54:22;;;;;;;290.90;30.88;;;;;;;;;;4991828;28;20029;-47
2021/10/27 04:56:49;;;;;;;89.97;15.25;;;;;;;;;;4992133;28;20463;-50
2021/10/27 04:59:18;;;;;;;80.13;15.35;;;;;;;;;;4991427;28;20031;-44
2021/10/27 05:01:48;;;;;;;93.55;16.52;;;;;;;;;;4987003;28;20037;-50
2021/10/27 05:04:15;;;;;;;82.40;13.90;;;;;;;;;;4994332;28;20022;-47
2021/10/27 05:06:43;;;;;;;73.50;13.43;;;;;;;;;;4995667;28;20097;-44
2021/10/27 05:09:10;;;;;;;86.72;15.05;;;;;;;;;;4995294;28;20025;-50
2021/10/27 05:11:37;;;;;;;102.72;17.02;;;;;;;;;;4991173;28;20049;-51
2021/10/27 05:14:04;;;;;;;75.47;14.88;;;;;;;;;;4995920;28;20029;-48
2021/10/27 05:16:31;;;;;;;90.68;16.25;;;;;;;;;;4995784;28;20500;-51
2021/10/27 05:18:58;;;;;;;92.53;14.43;;;;;;;;;;4994962;28;20093;-48
2021/10/27 05:21:25;;;;;;;83.70;14.45;;;;;;;;;;4990803;28;20085;-45
2021/10/27 05:23:52;;;;;;;75.10;14.38;;;;;;;;;;4995852;28;20080;-45
2021/10/27 05:26:19;;;;;;;93.25;15.18;;;;;;;;;;4995520;28;20089;-51
2021/10/27 05:28:46;;;;;;;92.45;15.40;;;;;;;;;;4995295;28;20516;-48
2021/10/27 05:31:13;;;;;;;69.78;13.48;;;;;;;;;;4990945;28;20038;-48
2021/10/27 05:33:40;;;;;;;85.45;15.02;;;;;;;;;;4995455;28;20018;-44
2021/10/27 05:36:07;;;;;;;77.05;13.50;;;;;;;;;;4995554;28;20038;-53
2021/10/27 05:38:34;;;;;;;86.53;13.70;;;;;;;;;;4994992;28;20061;-44
2021/10/27 05:41:01;;;;;;;81.43;12.25;;;;;;;;;;4989412;28;20509;-51
2021/10/27 05:43:28;;;;;;;64.13;12.43;;;;;;;;;;4994943;28;20046;-50
2021/10/27 05:45:57;;;;;;;71.22;12.48;;;;;;;;;;4976158;28;20435;-49
2021/10/27 05:48:29;;;;;;;79.20;13.38;;;;;;;;;;4975005;28;20046;-49
2021/10/27 05:56:19;;;;;;;72.03;12.57;;;;;;;;;;4995469;28;20038;-48
2021/10/27 05:58:47;;;;;;;65.07;11.63;;;;;;;;;;4994652;28;20033;-43
2021/10/27 06:01:14;;;;;;;57.20;10.63;;;;;;;;;;4993032;28;20360;-43
2021/10/27 06:03:42;;;;;;;69.50;11.45;;;;;;;;;;4993113;28;20057;-45
2021/10/27 06:06:10;;;;;;;69.85;12.00;;;;;;;;;;4994988;28;20034;-44
2021/10/27 06:08:37;;;;;;;63.67;10.98;;;;;;;;;;4994304;28;20057;-43
2021/10/27 06:11:13;;;;;;;54.20;10.55;;;;;;;;;;4994509;28;20023;-44
2021/10/27 06:13:45;;;;;;;72.40;10.82;;;;;;;;;;4991090;28;20034;-44
2021/10/27 06:16:12;;;;;;;;;;;;;;;;;;4994821;28;20061;-45
2021/10/27 06:18:40;;;;;;;61.15;11.02;;;;;;;;;;4994166;28;19948;-43
2021/10/27 06:21:08;;;;;;;52.10;10.70;;;;;;;;;;4994202;28;20108;-46
2021/10/27 06:23:35;;;;;;;50.75;10.48;;;;;;;;;;4989805;28;20173;-50
2021/10/27 06:26:03;;;;;;;62.17;10.85;;;;;;;;;;4994510;28;20030;-46
2021/10/27 06:28:33;;;;;;;48.88;10.20;;;;;;;;;;4994351;28;20022;-47
2021/10/27 06:31:15;;;;;;;64.18;11.30;;;;;;;;;;4993841;28;20092;-49
2021/10/27 06:36:16;;;;;;;54.08;9.80;;;;;;;;;;4994544;28;20478;-44
2021/10/27 06:38:55;;;;;;;53.90;9.02;;;;;;;;;;4993904;28;20037;-46
2021/10/27 06:46:53;;;;;;;46.80;9.20;;;;;;;;;;4994313;28;20038;-48
2021/10/27 06:49:20;;;;;;;57.30;9.40;;;;;;;;;;4993547;28;20082;-43
2021/10/27 06:51:47;;;;;;;55.80;9.82;;;;;;;;;;4992325;28;20088;-44
2021/10/27 06:54:14;;;;;;;58.35;9.60;;;;;;;;;;4989742;28;20010;-44
2021/10/27 06:56:42;;;;;;;52.30;9.35;;;;;;;;;;4994035;28;20041;-45
2021/10/27 07:07:04;;;;;;;53.15;10.43;;;;;;;;;;4993858;28;20085;-53
2021/10/27 07:17:34;;;;;;;44.70;9.35;;;;;;;;;;4993304;28;20042;-47
2021/10/27 07:20:06;;;;;;;50.13;9.07;;;;;;;;;;4992688;28;20068;-43
2021/10/27 07:22:34;;;;;;;51.67;9.82;;;;;;;;;;4993422;28;20377;-43
2021/10/27 07:25:02;;;;;;;48.97;9.43;;;;;;;;;;4989147;28;20382;-44
2021/10/27 07:27:31;;;;;;;49.85;9.73;;;;;;;;;;4992161;28;20034;-42
2021/10/27 07:29:58;;;;;;;52.15;10.60;;;;;;;;;;4992908;28;20022;-42
2021/10/27 07:32:26;;;;;;;47.20;9.15;;;;;;;;;;4993046;28;20038;-45
2021/10/27 07:35:00;;;;;;;52.47;9.50;;;;;;;;;;4988616;28;20030;-43
2021/10/27 07:43:01;;;;;;;59.83;10.35;;;;;;;;;;4992894;28;20405;-48
2021/10/27 07:45:28;;;;;;;40.28;9.02;;;;;;;;;;4988290;28;20474;-43
2021/10/27 07:47:56;;;;;;;39.65;8.65;;;;;;;;;;4992875;28;20030;-43
2021/10/27 07:50:24;;;;;;;49.92;10.02;;;;;;;;;;4992545;28;20422;-42
2021/10/27 07:52:52;;;;;;;39.30;9.00;;;;;;;;;;4992635;28;20363;-44
2021/10/27 07:55:19;;;;;;;40.65;9.13;;;;;;;;;;4988148;28;20042;-42
2021/10/27 07:57:47;;;;;;;37.70;8.80;;;;;;;;;;4992540;28;20022;-43
2021/10/27 08:00:17;;;;;;;49.17;9.48;;;;;;;;;;4992433;28;20109;-45
2021/10/27 08:02:50;;;;;;;38.28;8.93;;;;;;;;;;4992652;28;20038;-50
2021/10/27 08:05:19;;;;;;;47.90;8.88;;;;;;;;;;4987901;28;20367;-44
2021/10/27 08:07:46;;;;;;;31.75;8.18;;;;;;;;;;4992255;28;20034;-55
2021/10/27 08:10:17;;;;;;;37.42;8.38;;;;;;;;;;4992608;28;20023;-51
2021/10/27 08:12:45;;;;;;;29.83;8.00;;;;;;;;;;4992243;28;20037;-48
2021/10/27 08:15:12;;;;;;;34.15;8.02;;;;;;;;;;4987834;28;20532;-51
2021/10/27 08:17:39;;;;;;;37.63;9.00;;;;;;;;;;4992421;28;20022;-54
2021/10/27 08:20:08;;;;;;;41.97;7.80;;;;;;;;;;4990769;28;20053;-52
2021/10/27 08:22:36;;;;;;;44.75;8.20;;;;;;;;;;4990784;28;20025;-46
2021/10/27 08:25:14;;;;;;;29.15;7.68;;;;;;;;;;4987650;28;20494;-49
2021/10/27 08:27:41;;;;;;;38.85;8.15;;;;;;;;;;4992317;28;20074;-51
2021/10/27 08:30:11;;;;;;;28.58;8.05;;;;;;;;;;4992211;28;20022;-47
2021/10/27 08:32:44;;;;;;;33.70;7.38;;;;;;;;;;4991773;28;20030;-52
2021/10/27 08:35:13;;;;;;;35.72;7.90;;;;;;;;;;4987849;28;20037;-46
2021/10/27 08:37:45;;;;;;;26.55;7.10;;;;;;;;;;4992170;28;20046;-54
2021/10/27 08:40:13;;;;;;;32.83;7.68;;;;;;;;;;4992059;28;20041;-54
2021/10/27 08:42:41;;;;;;;30.92;7.53;;;;;;;;;;4991731;28;20153;-52
2021/10/27 08:45:08;;;;;;;35.17;7.75;;;;;;;;;;4989571;28;20101;-52
2021/10/27 08:47:38;;;;;;;35.63;7.10;;;;;;;;;;4989647;28;20036;-48
2021/10/27 08:50:07;;;;;;;26.88;6.72;;;;;;;;;;4992093;28;20030;-49
2021/10/27 08:52:34;;;;;;;31.98;6.85;;;;;;;;;;4991707;28;20053;-47
2021/10/27 08:55:02;;;;;;;33.90;6.82;;;;;;;;;;4991765;28;20107;-52
2021/10/27 08:57:29;;;;;;;37.78;6.65;;;;;;;;;;4987520;28;20034;-47
2021/10/27 09:16:30;;;;;;;34.20;5.95;;;;;;;;;;4987805;28;20089;-54
2021/10/27 09:38:56;;;;;;;64.90;7.47;;;;;;;;;;4987011;28;20073;-44
2021/10/27 09:41:44;;;;;;;70.57;9.30;;;;;;;;;;4991544;28;20080;-51
2021/10/27 10:06:12;;;;;;;137.13;11.80;;;;;;;;;;4994777;28;20077;-44
2021/10/27 10:08:43;;;;;;;218.68;19.50;;;;;;;;;;4990197;28;20102;-47
2021/10/27 10:11:11;;;;;;;97.78;9.77;;;;;;;;;;4995059;28;20026;-47
2021/10/27 10:13:39;;;;;;;64.20;7.43;;;;;;;;;;4994296;28;20022;-47
2021/10/27 10:16:09;;;;;;;121.50;10.30;;;;;;;;;;4994424;28;20030;-49
2021/10/27 10:18:36;;;;;;;125.78;10.38;;;;;;;;;;4990128;28;20021;-46
2021/10/27 10:21:03;;;;;;;103.30;10.60;;;;;;;;;;4994222;28;20521;-47
2021/10/27 10:23:30;;;;;;;66.07;7.07;;;;;;;;;;4994350;28;20034;-48
2021/10/27 10:26:00;;;;;;;183.88;13.95;;;;;;;;;;4994217;28;20027;-48
2021/10/27 10:28:28;;;;;;;95.72;9.27;;;;;;;;;;4989658;28;20092;-47
2021/10/27 10:31:01;;;;;;;45.45;6.95;;;;;;;;;;4994021;28;20010;-44
2021/10/27 10:33:41;;;;;;;65.10;5.07;;;;;;;;;;4989788;28;20035;-52
2021/10/27 10:38:51;;;;;;;54.35;5.75;;;;;;;;;;4987965;28;20393;-48
2021/10/27 10:42:06;;;;;;;48.40;6.00;;;;;;;;;;5008800;28;20477;-49
2021/10/27 10:45:19;;;;;;;97.95;7.50;;;;;;;;;;5008071;28;20364;-46
2021/10/27 11:38:21;;;;;;;63.03;5.88;;;;;;;;;;4992807;28;20112;-47
2021/10/27 11:40:54;;;;;;;83.82;6.18;;;;;;;;;;4987887;28;20054;-47
2021/10/27 11:45:57;;;;;;;146.60;10.73;;;;;;;;;;4991474;28;20390;-55
2021/10/27 11:51:12;;;;;;;64.90;6.35;;;;;;;;;;4987637;28;20022;-44
2021/10/27 11:53:39;;;;;;;98.57;9.07;;;;;;;;;;4991783;28;20050;-49
2021/10/27 11:56:13;;;;;;;99.00;7.95;;;;;;;;;;4991003;28;20025;-48
2021/10/27 11:58:45;;;;;;;100.22;7.60;;;;;;;;;;4995867;28;20040;-44
2021/10/27 12:01:37;;;;;;;86.60;7.45;;;;;;;;;;4987241;28;20105;-48
2021/10/27 12:04:06;;;;;;;48.53;5.38;;;;;;;;;;4972545;28;20120;-47
2021/10/27 12:11:38;;;;;;;117.50;7.25;;;;;;;;;;4971781;28;20022;-48
2021/10/27 12:14:20;;;;;;;51.65;4.53;;;;;;;;;;4972490;28;20105;-48
2021/10/27 12:19:22;;;;;;;93.63;8.60;;;;;;;;;;4972666;28;19938;-47
2021/10/27 12:22:00;;;;;;;37.83;3.92;;;;;;;;;;4972037;28;20093;-54
2021/10/27 12:24:29;;;;;;;49.63;4.40;;;;;;;;;;4973031;28;20364;-56
2021/10/27 12:27:08;;;;;;;38.22;4.70;;;;;;;;;;4971167;28;20125;-49
2021/10/27 12:29:36;;;;;;;69.72;6.28;;;;;;;;;;4972566;28;20389;-62
2021/10/27 12:32:03;;;;;;;69.15;6.20;;;;;;;;;;4970832;28;20023;-45
2021/10/27 12:34:31;;;;;;;102.22;8.43;;;;;;;;;;4985780;28;20065;-53
2021/10/27 12:37:00;;;;;;;41.20;5.30;;;;;;;;;;4986323;28;20018;-53
2021/10/27 12:39:44;;;;;;;31.90;4.18;;;;;;;;;;4986558;28;20027;-52
2021/10/27 12:42:13;;;;;;;76.35;8.48;;;;;;;;;;4970832;28;20391;-49
2021/10/27 12:44:54;;;;;;;40.17;4.95;;;;;;;;;;4976959;28;20097;-54
2021/10/27 12:47:25;;;;;;;335.45;33.78;;;;;;;;;;4990642;28;20048;-53
2021/10/27 12:50:11;;;;;;;130.90;12.50;;;;;;;;;;4991043;28;20018;-53
2021/10/27 12:52:43;;;;;;;49.35;5.13;;;;;;;;;;4999592;28;20113;-52
2021/10/27 12:55:11;;;;;;;39.95;5.82;;;;;;;;;;4991124;28;20107;-48
2021/10/27 12:57:50;;;;;;;39.40;5.30;;;;;;;;;;4990369;28;20074;-52
2021/10/27 13:00:31;;;;;;;95.82;7.95;;;;;;;;;;4989701;28;20125;-46
2021/10/27 13:14:36;;;;;;;45.28;6.00;;;;;;;;;;5005261;28;20034;-58
2021/10/27 13:30:18;;;;;;;94.18;9.38;;;;;;;;;;5014127;28;20060;-48
2021/10/27 13:35:19;;;;;;;58.53;6.05;;;;;;;;;;5010529;28;20093;-55
2021/10/27 13:37:46;;;;;;;55.42;6.88;;;;;;;;;;5007612;28;20033;-55
2021/10/27 13:40:14;;;;;;;51.13;6.90;;;;;;;;;;4998382;28;20381;-54
2021/10/27 13:43:17;;;;;;;51.28;6.10;;;;;;;;;;5009972;28;20148;-56
2021/10/27 13:59:16;;;;;;;43.85;6.03;;;;;;;;;;5012576;28;20040;-49
2021/10/27 14:09:47;;;;;;;39.95;5.43;;;;;;;;;;4994541;28;20039;-62
2021/10/27 14:14:54;;;;;;;59.53;6.60;;;;;;;;;;4994706;28;20022;-54
2021/10/27 14:17:36;;;;;;;42.47;6.80;;;;;;;;;;4992963;28;20026;-58
2021/10/27 14:21:56;;;;;;;52.72;6.28;;;;;;;;;;5003161;28;20497;-60
2021/10/27 14:40:10;;;;;;;68.95;7.05;;;;;;;;;;4992934;28;20085;-59
2021/10/27 14:51:02;;;;;;;54.30;7.55;;;;;;;;;;5011784;28;20478;-59
2021/10/27 14:59:00;;;;;;;43.85;7.38;;;;;;;;;;5013002;28;20088;-59
2021/10/27 15:21:09;;;;;;;52.90;8.23;;;;;;;;;;5009010;28;20085;-60
2021/10/27 15:28:58;;;;;;;41.90;7.28;;;;;;;;;;4987343;28;20053;-60
2021/10/27 15:36:52;;;;;;;41.17;7.13;;;;;;;;;;4989771;28;20425;-59
2021/10/27 15:44:42;;;;;;;45.13;7.80;;;;;;;;;;4989591;28;20092;-60
2021/10/27 15:52:39;;;;;;;43.95;6.75;;;;;;;;;;4987459;28;20030;-59
2021/10/27 15:55:07;;;;;;;41.55;7.55;;;;;;;;;;4988052;28;20033;-62
2021/10/27 15:57:34;;;;;;;45.63;7.30;;;;;;;;;;4989677;28;20073;-61
2021/10/27 16:00:01;;;;;;;42.55;7.60;;;;;;;;;;4987722;28;20042;-59
2021/10/27 16:02:28;;;;;;;50.75;7.07;;;;;;;;;;4989209;28;20014;-60
2021/10/27 16:04:56;;;;;;;51.72;7.10;;;;;;;;;;4980877;28;20033;-61
2021/10/27 16:07:24;;;;;;;46.83;7.13;;;;;;;;;;4979790;28;20126;-58
2021/10/27 16:09:58;;;;;;;36.95;6.82;;;;;;;;;;4981641;28;20034;-57
2021/10/27 16:12:28;;;;;;;42.20;7.10;;;;;;;;;;4974357;28;20030;-59
2021/10/27 16:14:55;;;;;;;43.78;8.13;;;;;;;;;;4980760;28;20042;-59
2021/10/27 16:17:22;;;;;;;50.28;8.38;;;;;;;;;;4984444;28;20096;-59
2021/10/27 16:19:49;;;;;;;49.15;7.47;;;;;;;;;;4980280;28;20042;-59
2021/10/27 16:22:16;;;;;;;49.38;7.15;;;;;;;;;;4983495;28;20474;-58
2021/10/27 16:24:43;;;;;;;49.10;7.13;;;;;;;;;;4990687;28;20034;-58
2021/10/27 16:27:10;;;;;;;45.88;7.18;;;;;;;;;;4984999;28;20068;-58
2021/10/27 16:29:37;;;;;;;45.42;7.03;;;;;;;;;;4989065;28;20057;-59
2021/10/27 16:32:04;;;;;;;41.03;6.93;;;;;;;;;;4988440;28;20024;-58
2021/10/27 16:34:31;;;;;;;47.42;7.60;;;;;;;;;;4986049;28;20105;-59
2021/10/27 16:36:58;;;;;;;54.00;7.35;;;;;;;;;;4988482;28;20023;-58
2021/10/27 16:39:25;;;;;;;45.03;8.00;;;;;;;;;;5009787;28;20022;-59
2021/10/27 16:41:52;;;;;;;43.28;7.95;;;;;;;;;;5009821;28;20025;-56
2021/10/27 16:44:20;;;;;;;46.15;6.63;;;;;;;;;;5008553;28;20017;-58
2021/10/27 16:46:47;;;;;;;38.53;7.18;;;;;;;;;;5009586;28;20026;-57
2021/10/27 16:49:16;;;;;;;46.10;6.75;;;;;;;;;;5010686;28;20025;-58
2021/10/27 16:51:43;;;;;;;44.90;7.18;;;;;;;;;;5010022;28;20488;-58
2021/10/27 16:54:10;;;;;;;34.88;6.65;;;;;;;;;;5009557;28;20104;-57
2021/10/27 16:56:37;;;;;;;48.60;7.80;;;;;;;;;;5009884;28;20068;-58
2021/10/27 16:59:04;;;;;;;45.25;6.70;;;;;;;;;;5008596;28;20022;-58
2021/10/27 17:01:31;;;;;;;49.55;7.07;;;;;;;;;;5013486;28;20029;-58
2021/10/27 17:03:59;;;;;;;47.05;6.53;;;;;;;;;;5014242;28;20026;-58
2021/10/27 17:06:26;;;;;;;60.17;7.90;;;;;;;;;;5014559;28;20101;-59
2021/10/27 17:30:37;;;;;;;65.43;8.98;;;;;;;;;;5045771;27;20475;-56
2021/10/27 17:33:05;;;;;;;70.50;8.27;;;;;;;;;;5045667;28;20049;-57
2021/10/27 17:35:32;;;;;;;57.47;8.95;;;;;;;;;;5045629;28;20520;-58
2021/10/27 17:37:59;;;;;;;51.00;7.47;;;;;;;;;;5045824;28;20078;-57
2021/10/27 17:40:31;;;;;;;45.42;7.85;;;;;;;;;;5045712;28;20029;-58
2021/10/27 17:42:58;;;;;;;65.25;8.18;;;;;;;;;;5045208;28;20472;-58
2021/10/27 17:45:35;;;;;;;56.95;7.88;;;;;;;;;;5045405;28;20414;-57
2021/10/27 17:48:08;;;;;;;59.72;8.00;;;;;;;;;;5045804;28;20056;-57
2021/10/27 17:58:32;;;;;;;59.22;8.77;;;;;;;;;;5045503;28;20044;-57
2021/10/27 18:01:01;;;;;;;59.40;7.55;;;;;;;;;;5045333;28;20422;-55
2021/10/27 18:03:30;;;;;;;63.90;8.60;;;;;;;;;;5068133;28;20027;-58
2021/10/27 18:05:57;;;;;;;80.45;9.68;;;;;;;;;;5059140;28;20029;-54
2021/10/27 18:08:24;;;;;;;62.22;8.43;;;;;;;;;;5025032;28;20013;-54
2021/10/27 18:10:55;;;;;;;65.20;9.40;;;;;;;;;;5024825;28;20031;-51
2021/10/27 18:13:25;;;;;;;72.60;10.52;;;;;;;;;;5023928;28;20057;-55
2021/10/27 18:16:00;;;;;;;53.75;8.52;;;;;;;;;;5024626;28;20026;-52
2021/10/27 18:18:32;;;;;;;64.25;9.30;;;;;;;;;;5020209;28;20027;-58
2021/10/27 18:21:00;;;;;;;54.80;8.40;;;;;;;;;;5005124;28;20117;-60
2021/10/27 18:23:46;;;;;;;60.17;8.73;;;;;;;;;;5010766;28;20026;-58
2021/10/27 18:37:34;;;;;;;49.78;6.88;;;;;;;;;;5011192;28;20041;-60
2021/10/27 18:40:05;;;;;;;51.88;7.60;;;;;;;;;;5008618;28;20183;-62
2021/10/27 18:42:42;;;;;;;42.13;7.45;;;;;;;;;;5011034;28;20029;-61
2021/10/27 18:45:13;;;;;;;49.08;8.10;;;;;;;;;;5009104;28;20422;-59
2021/10/27 18:47:40;;;;;;;49.83;6.97;;;;;;;;;;5010963;28;20485;-58
2021/10/27 18:50:08;;;;;;;43.35;7.22;;;;;;;;;;5010991;28;20026;-61
2021/10/27 18:55:10;;;;;;;40.50;7.00;;;;;;;;;;5010785;28;20034;-57
2021/10/27 19:00:28;;;;;;;49.45;8.40;;;;;;;;;;5010642;28;20053;-61
2021/10/27 19:16:26;;;;;;;40.92;7.80;;;;;;;;;;5011009;28;20030;-58
2021/10/27 19:18:53;;;;;;;47.53;8.02;;;;;;;;;;5008891;28;20033;-58
2021/10/27 19:21:20;;;;;;;38.42;6.72;;;;;;;;;;5010021;28;20079;-58
2021/10/27 19:23:47;;;;;;;43.40;8.07;;;;;;;;;;5010175;28;20432;-57
2021/10/27 19:26:29;;;;;;;41.50;6.75;;;;;;;;;;5009977;28;20472;-58
2021/10/27 19:29:19;;;;;;;42.93;7.20;;;;;;;;;;5007711;28;20036;-59
2021/10/27 19:32:12;;;;;;;40.08;6.70;;;;;;;;;;5009864;28;20030;-58
2021/10/27 20:05:24;;;;;;;38.35;7.43;;;;;;;;;;5009450;28;20108;-59
2021/10/27 20:29:42;;;;;;;42.38;6.85;;;;;;;;;;5008616;28;20050;-58
2021/10/27 20:51:06;;;;;;;33.40;6.68;;;;;;;;;;5009069;28;20100;-61
2021/10/27 20:53:35;;;;;;;32.70;6.43;;;;;;;;;;5008616;28;20109;-58
2021/10/27 20:56:03;;;;;;;56.50;6.97;;;;;;;;;;5007991;28;20049;-59
2021/10/27 21:14:44;;;;;;;38.33;6.80;;;;;;;;;;5008519;28;20076;-60
2021/10/27 21:17:11;;;;;;;40.40;5.97;;;;;;;;;;5007894;28;20014;-59
2021/10/27 21:19:38;;;;;;;42.53;6.85;;;;;;;;;;5008172;28;20037;-59
2021/10/27 21:22:05;;;;;;;61.25;8.15;;;;;;;;;;5008306;28;20473;-61
2021/10/27 21:24:33;;;;;;;49.30;6.50;;;;;;;;;;5006847;28;20068;-59
2021/10/27 21:27:05;;;;;;;46.97;6.28;;;;;;;;;;5006463;28;20396;-59
2021/10/27 21:29:56;;;;;;;46.17;5.53;;;;;;;;;;5007807;28;20413;-59
2021/10/27 21:32:44;;;;;;;41.53;6.57;;;;;;;;;;5007252;28;20018;-60
2021/10/27 21:43:27;;;;;;;37.22;6.10;;;;;;;;;;5007180;28;20060;-60
2021/10/27 21:45:54;;;;;;;46.45;6.50;;;;;;;;;;5007578;28;20030;-59
2021/10/27 21:48:21;;;;;;;36.17;5.30;;;;;;;;;;5008502;28;20030;-60
2021/10/27 21:50:48;;;;;;;37.45;5.72;;;;;;;;;;5007119;28;20049;-59